Time;durP1;ratioP1;P1;durP2;ratioP2;P2;SDS_P1;SDS_P2;PMS_P1;PMS_P2;Temp;Humidity;BMP_temperature;BMP_pressure;BME280_temperature;BME280_humidity;BME280_pressure;Samples;Min_cycle;Max_cycle;Signal;HPM_P1;HPM_P2
2022/01/23 00:02:28;;;;;;;;;;;6.20;99.90;;;;;;5114884;28;19928;-70
2022/01/23 00:04:54;;;;;;;;;;;6.20;99.90;;;;;;5114854;28;19924;-72
2022/01/23 00:07:20;;;;;;;;;;;6.20;99.90;;;;;;5115335;28;20380;-66
2022/01/23 00:09:45;;;;;;;;;;;5.90;99.90;;;;;;5115013;27;20433;-66
2022/01/23 00:12:21;;;;;;;;;;;6.20;99.90;;;;;;5114473;28;19928;-67
2022/01/23 00:17:34;;;;;;;;;;;6.20;99.90;;;;;;5114998;28;19924;-67
2022/01/23 00:20:02;;;;;;;;;;;6.20;99.90;;;;;;5114401;28;19945;-66
2022/01/23 00:22:38;;;;;;;;;;;6.20;99.90;;;;;;5114659;28;19925;-67
2022/01/23 00:30:33;;;;;;;;;;;6.20;99.90;;;;;;5114912;28;19971;-68
2022/01/23 00:33:00;;;;;;;;;;;6.20;99.90;;;;;;5112967;28;19967;-73
2022/01/23 00:35:26;;;;;;;;;;;6.20;99.90;;;;;;5114527;28;19923;-68
2022/01/23 00:37:53;;;;;;;;;;;6.20;99.90;;;;;;5114608;28;19934;-68
2022/01/23 00:40:19;;;;;;;;;;;6.20;99.90;;;;;;5113998;28;20376;-67
2022/01/23 00:42:45;;;;;;;;;;;6.20;99.90;;;;;;5114363;28;19930;-69
2022/01/23 00:47:37;;;;;;;;;;;6.20;99.90;;;;;;5114242;28;19923;-67
2022/01/23 00:50:03;;;;;;;;;;;6.20;99.90;;;;;;5113907;28;19939;-68
2022/01/23 00:52:28;;;;;;;;;;;6.20;99.90;;;;;;5096188;28;19931;-66
2022/01/23 00:54:55;;;;;;;;;;;6.20;99.90;;;;;;5095580;28;19931;-67
2022/01/23 00:57:21;;;;;;;;;;;6.20;99.90;;;;;;5112746;28;20096;-67
2022/01/23 00:59:47;;;;;;;;;;;6.20;99.90;;;;;;5112894;28;19946;-67
2022/01/23 01:02:12;;;;;;;;;;;6.20;99.90;;;;;;5113378;28;20403;-67
2022/01/23 01:04:38;;;;;;;;;;;6.20;99.90;;;;;;5113938;28;19924;-68
2022/01/23 01:07:03;;;;;;;;;;;6.20;99.90;;;;;;5113501;28;20008;-73
2022/01/23 01:09:30;;;;;;;;;;;6.20;99.90;;;;;;5112704;28;20239;-67
2022/01/23 01:11:59;;;;;;;;;;;6.20;99.90;;;;;;5113458;28;20333;-67
2022/01/23 01:14:35;;;;;;;;;;;6.20;99.90;;;;;;5113324;28;20082;-67
2022/01/23 01:17:12;;;;;;;;;;;6.20;99.90;;;;;;5113812;28;19930;-65
2022/01/23 01:33:42;;;;;;;;;;;6.20;99.90;;;;;;5113045;28;19924;-68
2022/01/23 01:38:48;;;;;;;;;;;6.20;99.90;;;;;;5113314;28;19923;-68
2022/01/23 01:41:14;;;;;;;;;;;6.20;99.90;;;;;;5111812;28;19924;-67
2022/01/23 01:43:40;;;;;;;;;;;6.20;99.90;;;;;;5112857;28;19924;-68
2022/01/23 01:46:05;;;;;;;;;;;6.20;99.90;;;;;;5113138;28;19924;-67
2022/01/23 01:48:31;;;;;;;;;;;6.20;99.90;;;;;;5112516;28;20121;-67
2022/01/23 01:50:59;;;;;;;;;;;6.20;99.90;;;;;;5111974;28;19931;-67
2022/01/23 01:53:25;;;;;;;;;;;6.20;99.90;;;;;;5112668;28;19992;-67
2022/01/23 01:55:53;;;;;;;;;;;6.10;99.90;;;;;;5094481;28;20370;-67
2022/01/23 02:09:18;;;;;;;;;;;6.10;99.90;;;;;;5111105;28;19928;-67
2022/01/23 02:15:42;;;;;;;;;;;6.10;99.90;;;;;;5111283;28;19967;-66
2022/01/23 02:17:41;;;;;;;;;;;6.10;99.90;;;;;;5106768;28;19924;-66
2022/01/23 02:55:23;;;;;;;;;;;6.10;99.90;;;;;;5111849;28;20328;-67
2022/01/23 02:57:58;;;;;;;;;;;6.10;99.90;;;;;;5111888;28;19931;-68
2022/01/23 03:00:31;;;;;;;;;;;6.00;99.90;;;;;;5110733;28;19960;-68
2022/01/23 03:03:02;;;;;;;;;;;6.10;99.90;;;;;;5110942;28;19930;-67
2022/01/23 03:08:54;;;;;;;;;;;6.10;99.90;;;;;;5112098;28;20271;-69
2022/01/23 03:11:01;;;;;;;;;;;6.10;99.90;;;;;;5109198;28;20019;-69
2022/01/23 03:13:48;;;;;;;;;;;6.10;99.90;;;;;;5111762;28;20334;-67
2022/01/23 03:24:08;;;;;;;;;;;6.10;99.90;;;;;;5111995;28;19971;-67
2022/01/23 03:29:54;;;;;;;;;;;6.10;99.90;;;;;;5114221;28;19924;-67
2022/01/23 03:32:25;;;;;;;;;;;6.10;99.90;;;;;;5114675;28;20429;-68
2022/01/23 03:34:51;;;;;;;;;;;6.10;99.90;;;;;;5116182;28;19931;-67
2022/01/23 03:37:17;;;;;;;;;;;6.10;99.90;;;;;;5114402;28;20293;-68
2022/01/23 03:39:43;;;;;;;;;;;6.20;99.90;;;;;;5114115;28;19966;-67
2022/01/23 03:42:09;;;;;;;;;;;6.20;99.90;;;;;;5113931;28;19924;-67
2022/01/23 03:44:40;;;;;;;;;;;6.00;99.90;;;;;;5114970;28;19924;-67
2022/01/23 03:47:22;;;;;;;;;;;6.00;99.90;;;;;;5114273;28;19927;-67
2022/01/23 03:49:48;;;;;;;;;;;6.00;99.90;;;;;;5115012;28;19924;-67
2022/01/23 03:52:14;;;;;;;;;;;6.00;99.90;;;;;;5114264;28;19969;-67
2022/01/23 03:54:40;;;;;;;;;;;6.00;99.90;;;;;;5114489;28;20006;-69
2022/01/23 03:57:06;;;;;;;;;;;6.00;99.90;;;;;;5115176;28;20444;-68
2022/01/23 03:59:32;;;;;;;;;;;6.00;99.90;;;;;;5113678;28;20486;-69
2022/01/23 04:01:58;;;;;;;;;;;6.00;99.90;;;;;;5114041;28;19928;-68
2022/01/23 04:04:42;;;;;;;;;;;6.00;99.90;;;;;;5115144;28;19969;-68
2022/01/23 04:07:09;;;;;;;;;;;6.00;99.90;;;;;;5114857;28;19923;-68
2022/01/23 04:09:36;;;;;;;;;;;6.00;99.90;;;;;;5114654;28;19930;-68
2022/01/23 04:12:03;;;;;;;;;;;6.00;99.90;;;;;;5115018;28;19934;-68
2022/01/23 04:14:30;;;;;;;;;;;6.00;99.90;;;;;;5114460;28;19923;-73
2022/01/23 04:45:08;;;;;;;;;;;6.00;99.90;;;;;;5113575;28;19924;-68
2022/01/23 04:59:33;;;;;;;;;;;5.90;99.90;;;;;;5114257;28;19931;-67
2022/01/23 05:00:21;;;;;;;;;;;5.90;99.90;;;;;;5111900;28;20048;-69
2022/01/23 05:05:15;;;;;;;;;;;6.00;99.90;;;;;;5113118;28;19928;-68
2022/01/23 05:07:45;;;;;;;;;;;6.00;99.90;;;;;;5113379;28;19924;-68
2022/01/23 05:10:11;;;;;;;;;;;5.90;99.90;;;;;;5112685;28;20433;-67
2022/01/23 05:12:37;;;;;;;;;;;5.90;99.90;;;;;;5113361;28;19924;-72
2022/01/23 05:15:02;;;;;;;;;;;6.00;99.90;;;;;;5113579;28;19931;-67
2022/01/23 05:17:28;;;;;;;;;;;5.90;99.90;;;;;;5112697;28;19924;-67
2022/01/23 05:19:53;;;;;;;;;;;5.90;99.90;;;;;;5113089;28;20352;-68
2022/01/23 05:24:59;;;;;;;;;;;5.90;99.90;;;;;;5113262;28;19931;-67
2022/01/23 05:27:27;;;;;;;;;;;5.90;99.90;;;;;;5112539;28;19923;-68
2022/01/23 05:29:54;;;;;;;;;;;5.90;99.90;;;;;;5111627;28;20025;-68
2022/01/23 05:32:21;;;;;;;;;;;6.00;99.90;;;;;;5113139;28;20441;-68
2022/01/23 05:34:47;;;;;;;;;;;5.90;99.90;;;;;;5112126;28;19923;-67
2022/01/23 05:37:13;;;;;;;;;;;6.00;99.90;;;;;;5113354;28;19924;-68
2022/01/23 05:39:38;;;;;;;;;;;5.90;99.90;;;;;;5111725;28;19930;-73
2022/01/23 05:42:09;;;;;;;;;;;5.90;99.90;;;;;;5113165;28;20399;-68
2022/01/23 05:44:35;;;;;;;;;;;5.90;99.90;;;;;;5094793;28;19936;-71
2022/01/23 05:47:01;;;;;;;;;;;5.90;99.90;;;;;;5112993;28;19920;-68
2022/01/23 05:49:27;;;;;;;;;;;5.90;99.90;;;;;;5112702;28;20327;-68
2022/01/23 05:51:52;;;;;;;;;;;5.90;99.90;;;;;;5112681;28;20022;-65
2022/01/23 05:54:18;;;;;;;;;;;5.90;99.90;;;;;;5113021;28;19924;-66
2022/01/23 05:56:44;;;;;;;;;;;5.90;99.90;;;;;;5112690;28;20284;-66
2022/01/23 05:59:09;;;;;;;;;;;5.90;99.90;;;;;;5111386;28;20331;-67
2022/01/23 06:01:35;;;;;;;;;;;5.90;99.90;;;;;;5112866;28;19924;-68
2022/01/23 06:04:00;;;;;;;;;;;5.90;99.90;;;;;;5112616;28;20583;-67
2022/01/23 06:06:26;;;;;;;;;;;5.90;99.90;;;;;;5112616;28;19988;-67
2022/01/23 06:08:51;;;;;;;;;;;5.90;99.90;;;;;;5093703;28;20019;-66
2022/01/23 06:11:17;;;;;;;;;;;5.90;99.90;;;;;;5112700;28;19974;-67
2022/01/23 06:13:43;;;;;;;;;;;5.80;99.90;;;;;;5112549;28;20394;-72
2022/01/23 06:16:08;;;;;;;;;;;5.80;99.90;;;;;;5111377;28;19924;-68
2022/01/23 06:18:36;;;;;;;;;;;5.90;99.90;;;;;;5111453;28;19979;-67
2022/01/23 06:21:02;;;;;;;;;;;5.80;99.90;;;;;;5110866;28;19928;-68
2022/01/23 06:23:30;;;;;;;;;;;5.80;99.90;;;;;;5112431;28;19931;-68
2022/01/23 06:25:56;;;;;;;;;;;5.80;99.90;;;;;;5094319;28;19931;-69
2022/01/23 06:28:34;;;;;;;;;;;5.80;99.90;;;;;;5112547;28;19928;-67
2022/01/23 06:30:59;;;;;;;;;;;5.80;99.90;;;;;;5111826;28;19923;-67
2022/01/23 06:33:25;;;;;;;;;;;5.90;99.90;;;;;;5111294;28;20053;-66
2022/01/23 06:35:51;;;;;;;;;;;5.80;99.90;;;;;;5094077;28;20266;-67
2022/01/23 06:38:16;;;;;;;;;;;5.80;99.90;;;;;;5112471;28;19923;-67
2022/01/23 06:40:42;;;;;;;;;;;5.80;99.90;;;;;;5112236;28;20029;-67
2022/01/23 06:43:07;;;;;;;;;;;5.80;99.90;;;;;;5110310;28;19950;-66
2022/01/23 06:45:33;;;;;;;;;;;5.80;99.90;;;;;;5111116;28;19973;-67
2022/01/23 06:47:58;;;;;;;;;;;5.80;99.90;;;;;;5093412;28;19924;-67
2022/01/23 06:50:24;;;;;;;;;;;5.80;99.90;;;;;;5112279;28;19932;-67
2022/01/23 06:52:50;;;;;;;;;;;5.80;99.90;;;;;;5111703;28;19924;-68
2022/01/23 06:55:17;;;;;;;;;;;5.70;99.90;;;;;;5111865;28;19928;-67
2022/01/23 06:57:43;;;;;;;;;;;5.70;99.90;;;;;;5116399;28;19924;-68
2022/01/23 07:00:09;;;;;;;;;;;5.80;99.90;;;;;;5114761;28;20059;-68
2022/01/23 07:02:34;;;;;;;;;;;5.70;99.90;;;;;;5115229;28;19924;-67
2022/01/23 07:05:00;;;;;;;;;;;5.70;99.90;;;;;;5115448;28;19946;-67
2022/01/23 07:07:26;;;;;;;;;;;5.70;99.90;;;;;;5115920;28;19923;-67
2022/01/23 07:09:52;;;;;;;;;;;5.70;99.90;;;;;;5114505;28;19928;-73
2022/01/23 07:12:17;;;;;;;;;;;5.70;99.90;;;;;;5115801;28;20410;-68
2022/01/23 07:14:43;;;;;;;;;;;5.70;99.90;;;;;;5114938;28;19924;-67
2022/01/23 07:17:08;;;;;;;;;;;5.70;99.90;;;;;;5115507;28;19946;-67
2022/01/23 07:19:34;;;;;;;;;;;5.70;99.90;;;;;;5115050;28;19931;-68
2022/01/23 07:21:59;;;;;;;;;;;5.70;99.90;;;;;;5115349;28;19924;-67
2022/01/23 07:24:25;;;;;;;;;;;5.70;99.90;;;;;;5114356;28;19928;-68
2022/01/23 07:26:51;;;;;;;;;;;5.70;99.90;;;;;;5115520;28;20014;-72
2022/01/23 07:29:18;;;;;;;;;;;5.90;99.90;;;;;;5115408;28;19924;-67
2022/01/23 07:31:56;;;;;;;;;;;5.70;99.90;;;;;;5115633;28;19923;-68
2022/01/23 07:34:21;;;;;;;;;;;5.70;99.90;;;;;;5114505;28;19985;-69
2022/01/23 07:36:47;;;;;;;;;;;5.70;99.90;;;;;;5114423;28;19975;-68
2022/01/23 07:39:13;;;;;;;;;;;5.60;99.90;;;;;;5115198;28;19981;-70
2022/01/23 07:41:38;;;;;;;;;;;5.60;99.90;;;;;;5115192;28;20003;-68
2022/01/23 07:44:04;;;;;;;;;;;5.60;99.90;;;;;;5114703;28;20265;-67
2022/01/23 07:46:30;;;;;;;;;;;5.60;99.90;;;;;;5115508;28;20022;-67
2022/01/23 07:48:55;;;;;;;;;;;5.60;99.90;;;;;;5115077;28;19924;-73
2022/01/23 07:51:21;;;;;;;;;;;5.60;99.90;;;;;;5115043;28;19948;-67
2022/01/23 07:53:47;;;;;;;;;;;5.60;99.90;;;;;;5113506;28;19931;-67
2022/01/23 07:56:12;;;;;;;;;;;5.60;99.90;;;;;;5114930;28;20279;-67
2022/01/23 07:58:38;;;;;;;;;;;5.50;99.90;;;;;;5115235;28;20340;-69
2022/01/23 08:01:04;;;;;;;;;;;5.50;99.90;;;;;;5114386;28;19923;-67
2022/01/23 08:03:29;;;;;;;;;;;5.40;99.90;;;;;;5097042;28;19935;-67
2022/01/23 08:05:55;;;;;;;;;;;5.50;99.90;;;;;;5115557;28;19930;-67
2022/01/23 08:08:21;;;;;;;;;;;5.40;99.90;;;;;;5113925;28;19924;-67
2022/01/23 08:10:46;;;;;;;;;;;5.50;99.90;;;;;;5114872;28;20020;-67
2022/01/23 08:13:12;;;;;;;;;;;5.50;99.90;;;;;;5113210;28;19931;-67
2022/01/23 08:15:37;;;;;;;;;;;5.50;99.90;;;;;;5114875;28;20442;-67
2022/01/23 08:18:04;;;;;;;;;;;5.40;99.90;;;;;;5114510;28;19924;-67
2022/01/23 08:20:31;;;;;;;;;;;5.50;99.90;;;;;;5114654;28;19928;-67
2022/01/23 08:22:58;;;;;;;;;;;5.50;99.90;;;;;;5114395;28;19932;-67
2022/01/23 08:25:24;;;;;;;;;;;5.50;99.90;;;;;;5113386;28;19931;-68
2022/01/23 08:27:49;;;;;;;;;;;5.50;99.90;;;;;;5113805;28;20269;-67
2022/01/23 08:30:15;;;;;;;;;;;5.50;99.90;;;;;;5114260;28;19923;-68
2022/01/23 08:32:40;;;;;;;;;;;5.60;99.90;;;;;;5113112;28;19933;-68
2022/01/23 08:35:06;;;;;;;;;;;5.70;99.90;;;;;;5114210;28;19930;-68
2022/01/23 08:37:32;;;;;;;;;;;5.70;99.90;;;;;;5113402;28;19984;-66
2022/01/23 08:39:58;;;;;;;;;;;5.80;99.90;;;;;;5114538;28;19983;-67
2022/01/23 08:42:24;;;;;;;;;;;5.80;99.90;;;;;;5112620;28;19928;-66
2022/01/23 08:44:50;;;;;;;;;;;5.90;99.90;;;;;;5096120;28;19924;-69
2022/01/23 08:47:17;;;;;;;;;;;6.00;99.90;;;;;;5112820;28;20010;-69
2022/01/23 08:49:47;;;;;;;;;;;6.00;99.90;;;;;;5114136;28;20356;-67
2022/01/23 08:52:18;;;;;;;;;;;6.10;99.90;;;;;;5113493;28;20292;-67
2022/01/23 08:54:50;;;;;;;;;;;6.10;99.90;;;;;;5113784;28;19931;-67
2022/01/23 08:57:17;;;;;;;;;;;6.10;99.90;;;;;;5112638;28;19927;-66
2022/01/23 08:59:42;;;;;;;;;;;6.10;99.90;;;;;;5112790;28;20365;-65
2022/01/23 09:02:09;;;;;;;;;;;6.20;99.90;;;;;;5113407;28;19930;-65
2022/01/23 09:04:35;;;;;;;;;;;6.20;99.90;;;;;;5114053;28;20288;-65
2022/01/23 09:07:01;;;;;;;;;;;6.20;99.90;;;;;;5112597;28;20011;-65
2022/01/23 09:09:30;;;;;;;;;;;6.30;99.90;;;;;;5113489;27;20400;-66
2022/01/23 09:12:07;;;;;;;;;;;6.30;99.90;;;;;;5112615;28;19930;-66
2022/01/23 09:14:33;;;;;;;;;;;6.30;99.90;;;;;;5112762;28;19931;-65
2022/01/23 09:16:59;;;;;;;;;;;6.30;99.90;;;;;;5112539;28;19924;-66
2022/01/23 09:19:26;;;;;;;;;;;6.40;99.90;;;;;;5112336;28;20514;-65
2022/01/23 09:21:52;;;;;;;;;;;6.40;99.90;;;;;;5113125;27;20012;-65
2022/01/23 09:24:19;;;;;;;;;;;6.40;99.90;;;;;;5111600;28;20393;-65
2022/01/23 09:26:51;;;;;;;;;;;6.40;99.90;;;;;;5113512;28;19927;-66
2022/01/23 09:29:25;;;;;;;;;;;6.50;99.90;;;;;;5113106;28;20026;-66
2022/01/23 09:31:50;;;;;;;;;;;6.50;99.90;;;;;;5113309;28;19977;-67
2022/01/23 09:34:18;;;;;;;;;;;6.50;99.90;;;;;;5112728;28;19923;-65
2022/01/23 09:36:43;;;;;;;;;;;6.50;99.90;;;;;;5112272;28;19981;-65
2022/01/23 09:39:14;;;;;;;;;;;6.60;99.90;;;;;;5112730;28;19963;-69
2022/01/23 09:41:41;;;;;;;;;;;6.60;99.90;;;;;;5112656;28;20015;-67
2022/01/23 09:44:08;;;;;;;;;;;6.60;99.90;;;;;;5112520;28;19954;-66
2022/01/23 09:46:33;;;;;;;;;;;6.70;99.90;;;;;;5110970;28;20399;-66
2022/01/23 09:49:00;;;;;;;;;;;6.80;99.90;;;;;;5113133;28;19971;-67
2022/01/23 09:51:25;;;;;;;;;;;6.70;99.90;;;;;;5112305;28;19931;-66
2022/01/23 09:53:54;;;;;;;;;;;6.80;99.90;;;;;;5112780;28;19927;-67
2022/01/23 09:56:27;;;;;;;;;;;6.80;99.90;;;;;;5112031;28;19990;-66
2022/01/23 09:58:57;;;;;;;;;;;6.80;99.90;;;;;;5112759;28;19931;-66
2022/01/23 10:01:23;;;;;;;;;;;6.80;99.90;;;;;;5112486;28;19923;-65
2022/01/23 10:03:49;;;;;;;;;;;6.90;99.90;;;;;;5112668;28;20011;-65
2022/01/23 10:06:15;;;;;;;;;;;6.90;99.90;;;;;;5111115;28;19923;-67
2022/01/23 10:08:41;;;;;;;;;;;6.90;99.90;;;;;;5112591;28;19928;-67
2022/01/23 10:11:11;;;;;;;;;;;6.90;99.90;;;;;;5112822;28;19923;-67
2022/01/23 10:13:36;;;;;;;;;;;7.00;99.90;;;;;;5112246;28;19924;-66
2022/01/23 10:16:02;;;;;;;;;;;7.00;99.90;;;;;;5112552;28;19931;-67
2022/01/23 10:18:28;;;;;;;;;;;7.10;99.90;;;;;;5112454;28;19930;-68
2022/01/23 10:20:53;;;;;;;;;;;7.10;99.90;;;;;;5112373;28;20371;-67
2022/01/23 10:23:19;;;;;;;;;;;7.10;99.90;;;;;;5112225;28;19969;-66
2022/01/23 10:25:47;;;;;;;;;;;7.20;99.90;;;;;;5111360;28;20163;-66
2022/01/23 10:28:18;;;;;;;;;;;7.30;99.90;;;;;;5094286;28;19974;-66
2022/01/23 10:30:47;;;;;;;;;;;7.30;99.90;;;;;;5111955;28;20434;-67
2022/01/23 10:33:20;;;;;;;;;;;7.30;99.90;;;;;;5112504;28;19971;-67
2022/01/23 10:35:54;;;;;;;;;;;7.30;99.90;;;;;;5111312;28;19932;-67
2022/01/23 10:38:22;;;;;;;;;;;7.30;99.90;;;;;;5112351;28;20280;-67
2022/01/23 10:40:52;;;;;;;;;;;7.30;99.90;;;;;;5112140;28;20230;-69
2022/01/23 10:48:35;;;;;;;;;;;7.30;99.90;;;;;;5111989;28;19927;-67
2022/01/23 10:51:19;;;;;;;;;;;7.30;99.90;;;;;;5112094;28;19941;-66
2022/01/23 10:54:00;;;;;;;;;;;7.30;99.90;;;;;;5111683;28;20324;-70
2022/01/23 10:56:27;;;;;;;;;;;7.30;99.90;;;;;;5111799;28;19984;-67
2022/01/23 10:59:11;;;;;;;;;;;7.30;99.90;;;;;;5112269;28;19924;-67
2022/01/23 11:01:37;;;;;;;;;;;7.30;99.90;;;;;;5110692;28;19924;-67
2022/01/23 11:04:11;;;;;;;;;;;7.40;99.90;;;;;;5111147;28;19924;-66
2022/01/23 11:06:52;;;;;;;;;;;7.40;99.90;;;;;;5111858;28;19924;-64
2022/01/23 11:09:17;;;;;;;;;;;7.40;99.90;;;;;;5111938;28;20280;-66
2022/01/23 11:11:46;;;;;;;;;;;7.40;99.90;;;;;;5111476;28;20018;-66
2022/01/23 11:17:25;;;;;;;;;;;7.40;99.90;;;;;;5073755;28;20041;-67
2022/01/23 11:19:55;;;;;;;;;;;7.40;99.90;;;;;;5111853;28;19924;-66
2022/01/23 11:22:22;;;;;;;;;;;7.50;99.90;;;;;;5111927;28;19977;-66
2022/01/23 11:24:48;;;;;;;;;;;7.50;99.90;;;;;;5110561;28;19930;-70
2022/01/23 11:27:15;;;;;;;;;;;7.50;99.90;;;;;;5110773;28;19946;-66
2022/01/23 11:29:54;;;;;;;;;;;7.50;99.90;;;;;;5111812;28;19930;-66
2022/01/23 11:32:21;;;;;;;;;;;7.50;99.90;;;;;;5111753;28;20293;-65
2022/01/23 11:34:47;;;;;;;;;;;7.50;99.90;;;;;;5111583;28;19923;-65
2022/01/23 11:37:15;;;;;;;;;;;7.50;99.90;;;;;;5111862;28;19924;-65
2022/01/23 11:39:47;;;;;;;;;;;7.50;99.90;;;;;;5111586;28;19994;-67
2022/01/23 11:56:24;;;;;;;;;;;7.60;99.90;;;;;;5114021;28;19923;-66
2022/01/23 11:59:09;;;;;;;;;;;7.60;99.90;;;;;;5115146;28;20108;-67
2022/01/23 12:01:34;;;;;;;;;;;7.60;99.90;;;;;;5114846;28;19924;-66
2022/01/23 12:04:06;;;;;;;;;;;7.70;99.90;;;;;;5115433;28;19923;-68
2022/01/23 12:06:32;;;;;;;;;;;7.70;99.90;;;;;;5113549;28;19928;-67
2022/01/23 12:09:10;;;;;;;;;;;7.70;99.90;;;;;;5115140;28;20280;-66
2022/01/23 12:11:43;;;;;;;;;;;7.80;99.90;;;;;;5114418;28;20288;-66
2022/01/23 12:16:53;;;;;;;;;;;7.80;99.90;;;;;;5114638;28;20339;-68
2022/01/23 12:19:23;;;;;;;;;;;7.90;99.90;;;;;;5115079;28;19930;-67
2022/01/23 12:21:50;;;;;;;;;;;8.00;99.90;;;;;;5114710;28;19924;-67
2022/01/23 12:24:17;;;;;;;;;;;8.10;99.90;;;;;;5115052;28;20280;-68
2022/01/23 12:26:43;;;;;;;;;;;8.00;99.90;;;;;;5113281;28;19924;-68
2022/01/23 12:29:12;;;;;;;;;;;8.00;99.90;;;;;;5114832;28;19924;-68
2022/01/23 12:31:38;;;;;;;;;;;8.00;99.90;;;;;;5114420;28;20344;-69
2022/01/23 12:34:04;;;;;;;;;;;8.00;99.90;;;;;;5114802;28;20387;-69
2022/01/23 12:36:31;;;;;;;;;;;7.90;99.90;;;;;;5113096;28;19924;-68
2022/01/23 12:39:18;;;;;;;;;;;7.90;99.90;;;;;;5113474;28;20304;-68
2022/01/23 12:41:47;;;;;;;;;;;7.90;99.90;;;;;;5114143;28;19939;-67
2022/01/23 12:44:22;;;;;;;;;;;7.90;99.90;;;;;;5113375;28;20391;-65
2022/01/23 12:46:49;;;;;;;;;;;7.80;99.90;;;;;;5113946;28;19920;-66
2022/01/23 12:49:16;;;;;;;;;;;7.80;99.90;;;;;;5114618;28;19975;-65
2022/01/23 12:51:42;;;;;;;;;;;7.80;99.90;;;;;;5113965;28;20379;-65
2022/01/23 12:54:09;;;;;;;;;;;7.80;99.90;;;;;;5113013;28;19969;-65
2022/01/23 12:56:42;;;;;;;;;;;7.80;99.90;;;;;;5111790;28;19924;-67
2022/01/23 12:59:11;;;;;;;;;;;7.80;99.90;;;;;;5118673;28;20037;-66
2022/01/23 13:01:41;;;;;;;;;;;7.80;99.90;;;;;;5118385;28;20288;-68
2022/01/23 13:04:08;;;;;;;;;;;7.80;99.90;;;;;;5113903;28;19924;-67
2022/01/23 13:06:35;;;;;;;;;;;7.90;99.90;;;;;;5112961;28;19920;-67
2022/01/23 13:09:23;;;;;;;;;;;7.90;99.90;;;;;;5112453;28;20326;-66
2022/01/23 13:11:54;;;;;;;;;;;7.90;99.90;;;;;;5095602;28;20052;-67
2022/01/23 13:14:27;;;;;;;;;;;7.90;99.90;;;;;;5113497;28;19927;-67
2022/01/23 13:26:21;;;;;;;;;;;7.80;99.90;;;;;;5113358;28;19924;-71
2022/01/23 13:30:49;;;;;;;;;;;7.80;99.90;;;;;;5112863;28;20007;-67
2022/01/23 13:33:20;;;;;;;;;;;7.80;99.90;;;;;;5113124;28;19931;-66
2022/01/23 13:35:50;;;;;;;;;;;7.80;99.90;;;;;;5111283;28;20384;-66
2022/01/23 13:38:17;;;;;;;;;;;7.90;99.90;;;;;;5112715;28;20445;-64
2022/01/23 13:40:43;;;;;;;;;;;7.90;99.90;;;;;;5111719;28;19924;-66
2022/01/23 13:57:43;;;;;;;;;;;7.90;99.90;;;;;;5111933;28;20407;-67
2022/01/23 13:59:59;;;;;;;;;;;7.80;99.90;;;;;;5111773;28;19920;-71
2022/01/23 14:02:25;;;;;;;;;;;7.80;99.90;;;;;;5112489;28;19923;-69
2022/01/23 14:05:02;;;;;;;;;;;7.80;99.90;;;;;;5093419;28;20387;-68
2022/01/23 14:07:28;;;;;;;;;;;7.80;99.90;;;;;;5111590;28;19924;-68
2022/01/23 14:09:55;;;;;;;;;;;7.80;99.90;;;;;;5110982;28;19945;-70
2022/01/23 14:12:21;;;;;;;;;;;7.70;99.90;;;;;;5094431;28;19927;-68
2022/01/23 14:14:52;;;;;;;;;;;7.70;99.90;;;;;;5112232;28;19930;-67
2022/01/23 14:17:18;;;;;;;;;;;7.70;99.90;;;;;;5111279;28;19975;-69
2022/01/23 14:20:03;;;;;;;;;;;7.70;99.90;;;;;;5112621;28;19930;-69
2022/01/23 14:22:29;;;;;;;;;;;7.60;99.90;;;;;;5112326;28;19923;-69
2022/01/23 14:25:05;;;;;;;;;;;7.60;99.90;;;;;;5112158;28;19969;-68
2022/01/23 14:27:31;;;;;;;;;;;7.60;99.90;;;;;;5112263;28;19970;-67
2022/01/23 14:29:58;;;;;;;;;;;7.60;99.90;;;;;;5110719;28;19970;-67
2022/01/23 14:32:33;;;;;;;;;;;7.60;99.90;;;;;;5110959;28;20349;-69
2022/01/23 14:35:06;;;;;;;;;;;7.60;99.90;;;;;;5111923;28;19924;-70
2022/01/23 14:37:32;;;;;;;;;;;7.60;99.90;;;;;;5112262;28;19934;-68
2022/01/23 14:40:27;;;;;;;;;;;7.60;99.90;;;;;;5112022;28;19924;-68
2022/01/23 14:43:00;;;;;;;;;;;7.60;99.90;;;;;;5088480;28;19931;-69
2022/01/23 14:45:26;;;;;;;;;;;7.60;99.90;;;;;;5112264;28;19924;-68
2022/01/23 14:47:51;;;;;;;;;;;7.60;99.90;;;;;;5110513;28;19927;-68
2022/01/23 14:50:19;;;;;;;;;;;7.60;99.90;;;;;;5110686;28;20342;-68
2022/01/23 14:52:47;;;;;;;;;;;7.60;99.90;;;;;;5111899;28;19924;-68
2022/01/23 14:55:12;;;;;;;;;;;7.60;99.90;;;;;;5110425;28;20011;-68
2022/01/23 14:57:40;;;;;;;;;;;7.60;99.90;;;;;;5111873;28;20370;-68
2022/01/23 15:00:07;;;;;;;;;;;7.60;99.90;;;;;;5110737;28;20364;-68
2022/01/23 15:02:32;;;;;;;;;;;7.60;99.90;;;;;;5111856;28;20300;-68
2022/01/23 15:05:02;;;;;;;;;;;7.60;99.90;;;;;;5111744;28;20038;-68
2022/01/23 15:07:35;;;;;;;;;;;7.60;99.90;;;;;;5110983;28;20249;-69
2022/01/23 15:10:00;;;;;;;;;;;7.60;99.90;;;;;;5111397;28;20084;-70
2022/01/23 15:12:26;;;;;;;;;;;7.60;99.90;;;;;;5110346;28;19992;-68
2022/01/23 15:14:52;;;;;;;;;;;7.60;99.90;;;;;;5110666;28;20421;-74
2022/01/23 15:17:20;;;;;;;;;;;7.60;99.90;;;;;;5112618;28;19924;-68
2022/01/23 15:19:46;;;;;;;;;;;7.50;99.90;;;;;;5115826;28;19967;-70
2022/01/23 15:22:12;;;;;;;;;;;7.50;99.90;;;;;;5115527;28;20095;-69
2022/01/23 15:24:38;;;;;;;;;;;7.50;99.90;;;;;;5116020;28;20357;-69
2022/01/23 15:27:04;;;;;;;;;;;7.50;99.90;;;;;;5113947;28;19959;-68
2022/01/23 15:29:29;;;;;;;;;;;7.50;99.90;;;;;;5096985;28;20438;-69
2022/01/23 15:31:55;;;;;;;;;;;7.50;99.90;;;;;;5114124;28;19970;-70
2022/01/23 15:34:21;;;;;;;;;;;7.50;99.90;;;;;;5115570;28;19928;-68
2022/01/23 15:36:47;;;;;;;;;;;7.50;99.90;;;;;;5115748;28;19923;-69
2022/01/23 15:39:13;;;;;;;;;;;7.50;99.90;;;;;;5115013;28;19924;-68
2022/01/23 15:41:39;;;;;;;;;;;7.50;99.90;;;;;;5114491;28;20010;-69
2022/01/23 15:44:05;;;;;;;;;;;7.50;99.90;;;;;;5097033;28;19924;-68
2022/01/23 15:46:30;;;;;;;;;;;7.50;99.90;;;;;;5114571;28;19946;-68
2022/01/23 15:48:56;;;;;;;;;;;7.40;99.90;;;;;;5114472;28;19924;-74
2022/01/23 15:51:21;;;;;;;;;;;7.40;99.90;;;;;;5096867;28;19924;-69
2022/01/23 15:53:47;;;;;;;;;;;7.40;99.90;;;;;;5096434;28;19924;-67
2022/01/23 15:56:13;;;;;;;;;;;7.40;99.90;;;;;;5113620;28;19927;-67
2022/01/23 15:58:38;;;;;;;;;;;7.40;99.90;;;;;;5113994;28;19947;-67
2022/01/23 16:01:04;;;;;;;;;;;7.40;99.90;;;;;;5096642;28;19924;-67
2022/01/23 16:03:29;;;;;;;;;;;7.40;99.90;;;;;;5115217;28;19932;-67
2022/01/23 16:05:56;;;;;;;;;;;7.40;99.90;;;;;;5115265;27;19924;-67
2022/01/23 16:08:21;;;;;;;;;;;7.40;99.90;;;;;;5114957;28;20272;-68
2022/01/23 16:10:47;;;;;;;;;;;7.40;99.90;;;;;;5113952;28;19924;-70
2022/01/23 16:13:13;;;;;;;;;;;7.40;99.90;;;;;;5114890;28;20292;-68
2022/01/23 16:15:38;;;;;;;;;;;7.40;99.90;;;;;;5097453;28;19924;-68
2022/01/23 16:18:04;;;;;;;;;;;7.40;99.90;;;;;;5114602;28;19977;-68
2022/01/23 16:20:30;;;;;;;;;;;7.40;99.90;;;;;;5115142;27;19924;-68
2022/01/23 16:22:55;;;;;;;;;;;7.40;99.90;;;;;;5114977;28;19924;-68
2022/01/23 16:25:22;;;;;;;;;;;7.30;99.90;;;;;;5114472;28;20436;-68
2022/01/23 16:27:48;;;;;;;;;;;7.40;99.90;;;;;;5114661;28;19924;-70
2022/01/23 16:30:15;;;;;;;;;;;7.30;99.90;;;;;;5113227;28;20010;-68
2022/01/23 16:32:42;;;;;;;;;;;7.30;99.90;;;;;;5115133;28;19971;-68
2022/01/23 16:35:09;;;;;;;;;;;7.30;99.90;;;;;;5113379;28;20284;-68
2022/01/23 16:37:34;;;;;;;;;;;7.30;99.90;;;;;;5114932;28;19923;-68
2022/01/23 16:40:00;;;;;;;;;;;7.30;99.90;;;;;;5113491;28;19947;-68
2022/01/23 16:42:26;;;;;;;;;;;7.30;99.90;;;;;;5112889;28;19947;-68
2022/01/23 16:44:51;;;;;;;;;;;7.30;99.90;;;;;;5113679;28;19985;-68
2022/01/23 16:47:17;;;;;;;;;;;7.30;99.90;;;;;;5113176;28;19959;-68
2022/01/23 16:49:43;;;;;;;;;;;7.30;99.90;;;;;;5114066;28;19924;-67
2022/01/23 16:52:11;;;;;;;;;;;7.30;99.90;;;;;;5095859;28;20011;-68
2022/01/23 16:54:37;;;;;;;;;;;7.30;99.90;;;;;;5114562;28;19977;-69
2022/01/23 16:57:03;;;;;;;;;;;7.30;99.90;;;;;;5095864;28;20331;-68
2022/01/23 16:59:29;;;;;;;;;;;7.30;99.90;;;;;;5113042;28;19924;-68
2022/01/23 17:01:55;;;;;;;;;;;7.30;99.90;;;;;;5113383;28;20304;-67
2022/01/23 17:04:20;;;;;;;;;;;7.30;99.90;;;;;;5113257;28;19974;-69
2022/01/23 17:06:46;;;;;;;;;;;7.30;99.90;;;;;;5114320;28;19924;-67
2022/01/23 17:09:13;;;;;;;;;;;7.30;99.90;;;;;;5095807;28;20375;-69
2022/01/23 17:11:39;;;;;;;;;;;7.30;99.90;;;;;;5113991;28;19975;-69
2022/01/23 17:14:04;;;;;;;;;;;7.20;99.90;;;;;;5114328;28;19974;-67
2022/01/23 17:16:30;;;;;;;;;;;7.50;99.90;;;;;;5113808;28;19932;-66
2022/01/23 17:18:56;;;;;;;;;;;7.20;99.90;;;;;;5113258;28;20321;-66
2022/01/23 17:21:21;;;;;;;;;;;7.30;99.90;;;;;;5095501;28;20022;-67
2022/01/23 17:23:47;;;;;;;;;;;7.30;99.90;;;;;;5113090;28;19974;-67
2022/01/23 17:26:13;;;;;;;;;;;7.30;99.90;;;;;;5112329;28;19931;-67
2022/01/23 17:28:39;;;;;;;;;;;7.30;99.90;;;;;;5113988;28;19942;-67
2022/01/23 17:31:05;;;;;;;;;;;7.20;99.90;;;;;;5095667;28;20381;-68
2022/01/23 17:33:30;;;;;;;;;;;7.20;99.90;;;;;;5113289;28;19977;-65
2022/01/23 17:35:56;;;;;;;;;;;7.20;99.90;;;;;;5113563;28;19923;-72
2022/01/23 17:38:22;;;;;;;;;;;7.20;99.90;;;;;;5095132;28;20315;-65
2022/01/23 17:40:47;;;;;;;;;;;7.30;99.90;;;;;;5111489;28;19923;-70